Marshall Don Hunter Sr Airport Marshall US
ICAO: PADM
IATA:
Category: Medium
Scheduled Services:

Elevation: 103 ft
TransAlt. 18000 ft.

Airport Communications:
ANCHORAGE CNTR:132.3
CTAF:122.9
ST MARYS RDO:124

PADM Zoom In..

If Map Doesn't Load, Click Here

Runways:

(A) RW 07 length 3200 ft width 100 ft
---- / hdg 70

(B) RW 25 length 3200 ft width 100 ft
---- / hdg 250

Location; PADM
Day. 23 / Time. 08.02 Zulu
* Altimeter: 29.40
* Temperature: 09° c. 48.2°f.
* Wind from: 180° Speed 16 kn with Gusts up to 21 kn.
Dewpoint: 08° c.
Visibility: 8 Statute Miles.
Clouds: Overcast 900 ft.
Conditions: Light Rain.

PADM 230802Z AUTO 18016G21KT 8SM -RA OVC009 09/08 A2940 RMK AO2 CIG 007V013 SLP966 P0004 T00940083 400940094


Wind From 180°
Speed 16 kn.

 
 
jpsmedia.com for Web Design worldairports.se 2018   terms of use